Messwerte Rocky Mount

Temperatur

Temperatur
°C
1593745200 23.00 23.00 23
1593748800 0.00 0.00 22
1593752400 1.00 1.00 22
1593756000 2.00 2.00 22
1593759600 3.00 3.00
1593763200 4.00 4.00 21
1593766800 5.00 5.00 21
1593770400 6.00 6.00 21
1593774000 7.00 7.00 21
1593777600 8.00 8.00 23
1593781200 9.00 9.00 26
1593784800 10.00 10.00 29
1593788400 11.00 11.00 30
1593792000 12.00 12.00 31
1593795600 13.00 13.00 32
1593799200 14.00 14.00 33
1593802800 15.00 15.00 33
1593806400 16.00 16.00 33
1593810000 17.00 17.00 33
1593813600 18.00 18.00 33
1593817200 19.00 19.00 32
1593820800 20.00 20.00 29
1593824400 21.00 21.00 26
1593828000 22.00 22.00 24

Aktuellste Messwerte

Wettercharakter
Wetter: klar
Temperatur
24 °C
Feuchtigkeit
90 %
Wind
0 km/h, -
Luftdruck
1013 hPa
Messzeit: 3. Juli 2020, 23.00Datenquelle: METAR

Weitere Messstationen in der Nähe

Messstation Temperatur Entfernung
Louisburg 24 °C 43 km
Goldsboro 23 °C 45 km
Pitt-Greenville Airport 25 °C 51 km
Smithfield 23 °C 57 km
Seymour-Johnson Air Force Base 26 °C 58 km
Kinston 24 °C 64 km
Oxford 22 °C 80 km

Wind

Windrichtung Böen Mittelwind
° km/h km/h
1593745200 23.00 22.00 - 23.00 0
1593748800 0.00 23.00 - 0.00 0
1593752400 1.00 0.00 - 1.00 0
1593756000 2.00 1.00 - 2.00 210° 5
1593759600 3.00 2.00 - 3.00
1593763200 4.00 3.00 - 4.00 0
1593766800 5.00 4.00 - 5.00 0
1593770400 6.00 5.00 - 6.00 0
1593774000 7.00 6.00 - 7.00 0
1593777600 8.00 7.00 - 8.00 300° 5
1593781200 9.00 8.00 - 9.00 5
1593784800 10.00 9.00 - 10.00 330° 10
1593788400 11.00 10.00 - 11.00 330° 10
1593792000 12.00 11.00 - 12.00
1593795600 13.00 12.00 - 13.00 5
1593799200 14.00 13.00 - 14.00 300° 15
1593802800 15.00 14.00 - 15.00 210° 10
1593806400 16.00 15.00 - 16.00 320° 5
1593810000 17.00 16.00 - 17.00 5
1593813600 18.00 17.00 - 18.00 310° 5
1593817200 19.00 18.00 - 19.00 320° 5
1593820800 20.00 19.00 - 20.00 0
1593824400 21.00 20.00 - 21.00 0
1593828000 22.00 21.00 - 22.00 0

Ihre Wetterstation

Fehlt Ihre Wetterstation auf unserem Portal?

Schreiben Sie an network@meteonews.ch

Klima

Wann ist es am wärmsten? Wann regnet es am wenigsten? Unsere Klimadaten geben Auskunft.